Time;durP1;ratioP1;P1;durP2;ratioP2;P2;SDS_P1;SDS_P2;PMS_P1;PMS_P2;Temp;Humidity;BMP_temperature;BMP_pressure;BME280_temperature;BME280_humidity;BME280_pressure;Samples;Min_cycle;Max_cycle;Signal;HPM_P1;HPM_P2
2021/01/14 13:34:18;;;;;;;;;;;;;;;17.03;42.99;100122.16;4426476;31;19972;-71
2021/01/14 13:36:44;;;;;;;;;;;;;;;17.03;42.99;100122.16;4423060;32;19954;-69
2021/01/14 13:39:10;;;;;;;;;;;;;;;16.74;43.46;100130.22;4418385;32;19958;-69
2021/01/14 13:41:36;;;;;;;;;;;;;;;16.86;43.24;100127.88;4420907;32;19946;-68
2021/01/14 13:44:02;;;;;;;;;;;;;;;16.96;42.98;100128.97;4426108;32;19950;-70
2021/01/14 13:46:28;;;;;;;;;;;;;;;17.04;42.80;100117.75;4426282;32;19982;-69
2021/01/14 13:48:54;;;;;;;;;;;;;;;17.09;42.65;100116.13;4433607;32;19980;-69
2021/01/14 13:51:20;;;;;;;;;;;;;;;17.11;42.56;100120.56;4420454;32;20294;-69
2021/01/14 13:53:45;;;;;;;;;;;;;;;17.14;42.48;100123.28;4448386;32;19957;-69
2021/01/14 13:56:11;;;;;;;;;;;;;;;17.14;42.45;100115.37;4426495;32;19986;-69
2021/01/14 13:58:37;;;;;;;;;;;;;;;17.17;42.38;100118.91;4424780;32;20031;-71
2021/01/14 14:01:03;;;;;;;;;;;;;;;17.17;42.37;100124.19;4430924;32;19946;-71
2021/01/14 14:03:29;;;;;;;;;;;;;;;17.18;42.35;100129.50;4424170;32;19954;-69
2021/01/14 14:05:55;;;;;;;;;;;;;;;17.18;42.30;100123.31;4431455;32;19954;-70
2021/01/14 14:08:21;;;;;;;;;;;;;;;17.23;42.20;100125.19;4436574;32;20278;-69
2021/01/14 14:10:47;;;;;;;;;;;;;;;17.26;42.17;100124.38;4425626;32;19947;-70
2021/01/14 14:13:13;;;;;;;;;;;;;;;17.28;42.11;100123.56;4428346;32;19946;-69
2021/01/14 14:15:39;;;;;;;;;;;;;;;17.31;42.08;100127.12;4425827;32;19978;-68
2021/01/14 14:18:04;;;;;;;;;;;;;;;17.31;42.04;100125.37;4431046;32;19969;-69
2021/01/14 14:20:32;;;;;;;;;;;;;;;17.31;42.03;100122.72;4429907;32;19954;-69
2021/01/14 14:22:57;;;;;;;;;;;;;;;17.31;42.01;100122.72;4435137;32;19957;-69
2021/01/14 14:25:23;;;;;;;;;;;;;;;17.31;42.00;100128.00;4434205;32;19954;-69
2021/01/14 14:27:49;;;;;;;;;;;;;;;17.32;42.00;100123.62;4446169;32;19972;-69
2021/01/14 14:30:15;;;;;;;;;;;;;;;17.32;42.01;100128.91;4449229;32;19992;-69
2021/01/14 14:32:41;;;;;;;;;;;;;;;17.31;42.00;100128.00;4447871;32;19991;-69
2021/01/14 14:35:07;;;;;;;;;;;;;;;17.32;42.01;100132.41;4430206;32;19998;-69
2021/01/14 14:37:33;;;;;;;;;;;;;;;17.31;42.02;100133.25;4441037;32;19949;-71
2021/01/14 14:39:59;;;;;;;;;;;;;;;17.31;42.00;100138.53;4439392;32;19985;-69
2021/01/14 14:42:24;;;;;;;;;;;;;;;17.30;42.02;100142.00;4427456;32;19981;-69
2021/01/14 14:44:50;;;;;;;;;;;;;;;17.30;42.02;100131.47;4414064;32;20013;-69
2021/01/14 14:47:16;;;;;;;;;;;;;;;17.30;42.00;100131.47;4422006;32;19986;-69
2021/01/14 14:49:42;;;;;;;;;;;;;;;17.30;42.02;100139.38;4423841;32;20021;-70
2021/01/14 14:52:08;;;;;;;;;;;;;;;17.30;42.04;100138.50;4424521;32;20289;-69
2021/01/14 14:54:34;;;;;;;;;;;;;;;17.29;42.06;100137.59;4425408;32;20346;-69
2021/01/14 14:57:00;;;;;;;;;;;;;;;17.28;42.07;100138.47;4420236;32;19934;-69
2021/01/14 14:59:26;;;;;;;;;;;;;;;17.29;42.09;100140.25;4417913;32;20394;-69
2021/01/14 15:01:51;;;;;;;;;;;;;;;17.28;42.12;100143.72;4405369;32;19946;-69
2021/01/14 15:04:17;;;;;;;;;;;;;;;17.27;42.13;100147.22;4417302;32;19939;-69
2021/01/14 15:06:43;;;;;;;;;;;;;;;17.27;42.15;100148.09;4409281;32;19997;-69
2021/01/14 15:09:09;;;;;;;;;;;;;;;17.27;42.16;100155.13;4413819;32;19995;-69
2021/01/14 15:11:35;;;;;;;;;;;;;;;17.26;42.15;100150.72;4419706;32;19969;-71
2021/01/14 15:14:01;;;;;;;;;;;;;;;17.26;42.17;100161.25;4418907;32;19952;-69
2021/01/14 15:16:27;;;;;;;;;;;;;;;17.26;42.17;100162.09;4417683;32;19962;-68
2021/01/14 15:18:53;;;;;;;;;;;;;;;17.26;42.17;100166.50;4409024;32;19946;-69
2021/01/14 15:21:19;;;;;;;;;;;;;;;17.26;42.17;100163.88;4422980;32;19948;-69
2021/01/14 15:23:44;;;;;;;;;;;;;;;17.26;42.17;100155.97;4419017;32;19975;-69
2021/01/14 15:26:10;;;;;;;;;;;;;;;17.26;42.17;100156.84;4416509;32;19954;-69
2021/01/14 15:28:37;;;;;;;;;;;;;;;17.27;42.15;100155.13;4401197;32;19961;-70
2021/01/14 15:31:03;;;;;;;;;;;;;;;17.27;42.15;100163.88;4413399;32;19954;-69
2021/01/14 15:33:29;;;;;;;;;;;;;;;17.27;42.15;100166.50;4415064;32;19958;-68
2021/01/14 15:35:55;;;;;;;;;;;;;;;17.27;42.07;100163.00;4417614;32;19954;-68
2021/01/14 15:38:22;;;;;;;;;;;;;;;17.26;41.89;100155.97;4402530;32;20426;-68
2021/01/14 15:40:48;;;;;;;;;;;;;;;17.23;41.95;100154.16;4405717;32;19996;-68
2021/01/14 15:43:14;;;;;;;;;;;;;;;17.24;42.06;100162.94;4419886;32;19958;-68
2021/01/14 15:45:40;;;;;;;;;;;;;;;17.25;42.06;100160.34;4421424;32;20309;-67
2021/01/14 15:48:06;;;;;;;;;;;;;;;17.24;41.84;100163.81;4422250;32;19962;-70
2021/01/14 15:50:31;;;;;;;;;;;;;;;17.22;40.33;100160.28;4420582;32;19958;-71
2021/01/14 15:52:57;;;;;;;;;;;;;;;17.25;38.67;100159.47;4418827;32;19965;-73
2021/01/14 15:55:23;;;;;;;;;;;;;;;17.27;38.10;100163.00;4417074;32;19980;-72
2021/01/14 15:57:49;;;;;;;;;;;;;;;17.31;37.79;100156.94;4405287;32;19965;-73
2021/01/14 16:00:16;;;;;;;;;;;;;;;17.36;37.58;100157.03;4418424;32;19946;-73
2021/01/14 16:02:42;;;;;;;;;;;;;;;17.38;37.50;100156.22;4410164;32;19966;-71
2021/01/14 16:05:08;;;;;;;;;;;;;;;17.42;38.12;100163.31;4393713;32;19965;-72
2021/01/14 16:12:46;;;;;;;;;;;;;;;17.48;37.08;100159.94;4724983;27;21080;-84
2021/01/14 16:15:11;;;;;;;;;;;;;;;17.53;37.22;100160.03;4369027;32;19958;-83
2021/01/14 16:17:37;;;;;;;;;;;;;;;17.59;38.62;100161.91;4358328;32;19959;-84
2021/01/14 16:20:03;;;;;;;;;;;;;;;17.61;40.48;100174.25;4359163;32;19939;-83
2021/01/14 16:22:30;;;;;;;;;;;;;;;17.60;40.83;100161.97;4391518;27;19963;-73
2021/01/14 16:24:56;;;;;;;;;;;;;;;17.62;40.93;100160.25;4377581;32;19967;-71
2021/01/14 16:27:22;;;;;;;;;;;;;;;17.53;36.00;100160.03;4379541;32;20389;-71
2021/01/14 16:29:48;;;;;;;;;;;;;;;17.48;38.19;100156.44;4374467;32;19957;-70
2021/01/14 16:32:14;;;;;;;;;;;;;;;17.49;40.14;100153.81;4375306;32;19959;-69
2021/01/14 16:34:40;;;;;;;;;;;;;;;17.47;40.56;100154.63;4375965;32;19985;-69
2021/01/14 16:37:06;;;;;;;;;;;;;;;17.47;40.74;100159.91;4360004;32;20335;-70
2021/01/14 16:39:32;;;;;;;;;;;;;;;17.46;40.84;100158.13;4375689;32;19965;-70
2021/01/14 16:41:58;;;;;;;;;;;;;;;17.45;40.95;100151.09;4396819;27;19962;-83
2021/01/14 16:44:24;;;;;;;;;;;;;;;17.44;38.86;100147.59;4358338;32;19959;-83
2021/01/14 16:46:54;;;;;;;;;;;;;;;17.42;37.11;100146.66;4366513;32;19947;-83
2021/01/14 16:49:20;;;;;;;;;;;;;;;17.40;36.69;100146.63;4360680;32;19960;-83
2021/01/14 16:51:46;;;;;;;;;;;;;;;17.39;36.41;100146.56;4362811;32;19960;-83
2021/01/14 16:54:12;;;;;;;;;;;;;;;17.38;36.35;100142.16;4362144;32;19977;-83
2021/01/14 16:56:38;;;;;;;;;;;;;;;17.38;38.48;100152.69;4367074;32;19936;-83
2021/01/14 16:59:04;;;;;;;;;;;;;;;17.38;40.25;100139.53;4366080;32;19978;-81
2021/01/14 17:01:30;;;;;;;;;;;;;;;17.38;38.99;100135.19;4361796;32;19961;-83
2021/01/14 17:03:56;;;;;;;;;;;;;;;17.42;38.19;100133.50;4361908;32;19967;-81
2021/01/14 17:06:22;;;;;;;;;;;;;;;17.44;37.96;100134.41;4364015;32;19955;-82
2021/01/14 17:08:48;;;;;;;;;;;;;;;17.46;37.86;100131.78;4357264;32;19985;-82
2021/01/14 17:11:14;;;;;;;;;;;;;;;17.48;37.87;100132.75;4367873;32;19939;-82
2021/01/14 17:13:40;;;;;;;;;;;;;;;17.48;38.13;100132.75;4363247;32;19950;-82
2021/01/14 17:16:06;;;;;;;;;;;;;;;17.47;38.21;100125.66;4361318;32;20308;-81
2021/01/14 17:18:32;;;;;;;;;;;;;;;17.48;38.26;100130.09;4383632;32;19951;-81
2021/01/14 17:20:58;;;;;;;;;;;;;;;17.47;38.57;100126.56;4370978;32;20000;-82
2021/01/14 17:23:25;;;;;;;;;;;;;;;17.48;39.67;100130.09;4365285;32;19951;-81
2021/01/14 17:25:50;;;;;;;;;;;;;;;17.47;39.99;100118.69;4361240;32;20007;-82
2021/01/14 17:28:16;;;;;;;;;;;;;;;17.46;40.11;100121.25;4371023;32;19943;-81
2021/01/14 17:30:43;;;;;;;;;;;;;;;17.46;40.21;100111.63;4370466;32;19979;-82
2021/01/14 17:33:08;;;;;;;;;;;;;;;17.46;40.29;100113.38;4369645;32;19959;-81
2021/01/14 17:35:34;;;;;;;;;;;;;;;17.45;40.35;100099.34;4369447;32;20057;-82
2021/01/14 17:38:01;;;;;;;;;;;;;;;17.45;40.38;100114.22;4370356;32;19939;-82
2021/01/14 17:40:27;;;;;;;;;;;;;;;17.45;40.42;100115.13;4383131;32;19950;-82
2021/01/14 17:42:54;;;;;;;;;;;;;;;17.44;40.46;100113.34;4371783;32;19947;-81
2021/01/14 17:45:26;;;;;;;;;;;;;;;17.43;40.50;100111.59;4361874;32;19939;-82
2021/01/14 17:47:51;;;;;;;;;;;;;;;17.43;40.55;100106.31;4368002;32;20069;-82
2021/01/14 17:50:17;;;;;;;;;;;;;;;17.43;40.59;100095.78;4370920;32;20452;-82
2021/01/14 17:52:43;;;;;;;;;;;;;;;17.41;40.64;100103.66;4367001;32;20009;-81
2021/01/14 17:55:09;;;;;;;;;;;;;;;17.42;40.66;100105.41;4364702;32;19958;-82
2021/01/14 17:57:37;;;;;;;;;;;;;;;17.42;40.67;100100.16;4382947;32;19955;-81
2021/01/14 18:00:09;;;;;;;;;;;;;;;17.42;40.68;100097.53;4356680;32;19978;-81
2021/01/14 18:02:35;;;;;;;;;;;;;;;17.42;40.69;100104.53;4367176;32;19959;-82
2021/01/14 18:05:01;;;;;;;;;;;;;;;17.41;40.70;100101.00;4362374;32;20006;-81
2021/01/14 18:07:27;;;;;;;;;;;;;;;17.42;40.74;100094.03;4371616;32;19955;-81
2021/01/14 18:09:53;;;;;;;;;;;;;;;17.42;40.75;100096.66;4365937;32;20377;-81
2021/01/14 18:12:19;;;;;;;;;;;;;;;17.42;40.76;100102.78;4383528;32;19935;-81
2021/01/14 18:14:45;;;;;;;;;;;;;;;17.42;40.75;100105.41;4388565;32;19943;-81
2021/01/14 18:17:19;;;;;;;;;;;;;;;17.42;40.73;100105.41;4395111;32;19955;-81
2021/01/14 18:19:45;;;;;;;;;;;;;;;17.42;40.76;100105.41;4376550;32;19983;-82
2021/01/14 18:22:11;;;;;;;;;;;;;;;17.41;40.78;100103.66;4358408;32;19993;-81
2021/01/14 18:24:37;;;;;;;;;;;;;;;17.42;40.78;100097.53;4358147;32;19986;-81
2021/01/14 18:27:03;;;;;;;;;;;;;;;17.41;40.79;100093.12;4358246;32;19978;-81
2021/01/14 18:29:29;;;;;;;;;;;;;;;17.40;40.76;100093.97;4362566;32;20303;-82
2021/01/14 18:31:55;;;;;;;;;;;;;;;17.40;40.82;100104.50;4373124;32;19979;-81
2021/01/14 18:34:20;;;;;;;;;;;;;;;17.39;40.84;100094.84;4369780;32;19970;-81
2021/01/14 18:36:46;;;;;;;;;;;;;;;17.39;40.83;100096.56;4357893;33;19974;-81
2021/01/14 18:39:12;;;;;;;;;;;;;;;17.37;40.88;100099.19;4357685;32;19955;-82
2021/01/14 18:41:39;;;;;;;;;;;;;;;17.37;40.80;100109.72;4365991;32;19951;-81
2021/01/14 18:44:05;;;;;;;;;;;;;;;17.36;40.92;100105.31;4371848;32;19973;-81
2021/01/14 18:46:31;;;;;;;;;;;;;;;17.36;40.90;100102.69;4386359;32;19951;-81
2021/01/14 18:51:26;;;;;;;;;;;;;;;17.35;40.89;100114.06;4386002;32;19963;-82
2021/01/14 18:53:51;;;;;;;;;;;;;;;17.35;40.89;100113.16;4372931;32;19992;-82
2021/01/14 18:56:17;;;;;;;;;;;;;;;17.34;40.96;100107.00;4372743;32;19984;-81
2021/01/14 18:58:43;;;;;;;;;;;;;;;17.34;41.02;100112.25;4371568;32;20344;-82
2021/01/14 19:01:10;;;;;;;;;;;;;;;17.35;41.00;100113.16;4372406;32;19974;-81
2021/01/14 19:03:36;;;;;;;;;;;;;;;17.35;40.95;100107.91;4368725;32;19948;-81
2021/01/14 19:06:02;;;;;;;;;;;;;;;17.36;40.99;100109.66;4357281;33;19952;-82
2021/01/14 19:08:28;;;;;;;;;;;;;;;17.35;40.99;100107.91;4370082;32;21502;-81
2021/01/14 19:10:54;;;;;;;;;;;;;;;17.35;40.98;100114.06;4357752;32;19955;-82
2021/01/14 19:13:20;;;;;;;;;;;;;;;17.35;40.99;100108.81;4357202;32;19956;-81
2021/01/14 19:15:52;;;;;;;;;;;;;;;17.35;40.98;100114.06;4359846;32;19943;-81
2021/01/14 19:18:18;;;;;;;;;;;;;;;17.35;41.00;100113.16;4363989;32;19985;-81
2021/01/14 19:20:44;;;;;;;;;;;;;;;17.35;41.00;100114.06;4372138;32;19951;-81
2021/01/14 19:23:11;;;;;;;;;;;;;;;17.34;41.00;100108.75;4369819;32;19952;-81
2021/01/14 19:25:37;;;;;;;;;;;;;;;17.34;41.00;100112.25;4364120;32;19951;-81
2021/01/14 19:28:03;;;;;;;;;;;;;;;17.34;41.06;100107.00;4371459;32;19959;-80
2021/01/14 19:30:28;;;;;;;;;;;;;;;17.32;41.06;100108.72;4371826;32;20017;-82
2021/01/14 19:32:54;;;;;;;;;;;;;;;17.33;41.05;100110.47;4372187;32;19949;-81
2021/01/14 19:35:20;;;;;;;;;;;;;;;17.33;41.06;100110.47;4371001;32;20006;-81
2021/01/14 19:37:46;;;;;;;;;;;;;;;17.34;41.07;100100.84;4372238;32;19970;-81
2021/01/14 19:40:12;;;;;;;;;;;;;;;17.33;41.08;100107.84;4371334;32;19950;-81
2021/01/14 19:42:38;;;;;;;;;;;;;;;17.33;41.11;100099.97;4397094;32;19943;-81
2021/01/14 19:45:04;;;;;;;;;;;;;;;17.32;41.12;100095.56;4388721;32;19951;-81
2021/01/14 19:47:30;;;;;;;;;;;;;;;17.33;41.15;100093.81;4367339;32;19951;-82
2021/01/14 19:49:56;;;;;;;;;;;;;;;17.32;41.17;100098.19;4376080;32;19995;-81
2021/01/14 19:52:28;;;;;;;;;;;;;;;17.32;41.18;100094.69;4382471;32;20443;-81
2021/01/14 19:54:54;;;;;;;;;;;;;;;17.33;41.20;100094.69;4362973;32;19940;-81
2021/01/14 19:57:20;;;;;;;;;;;;;;;17.32;41.24;100098.19;4361777;32;19958;-83
2021/01/14 19:59:46;;;;;;;;;;;;;;;17.32;41.25;100095.56;4359114;32;19967;-81
2021/01/14 20:02:12;;;;;;;;;;;;;;;17.33;41.25;100101.72;4364460;32;19991;-82
2021/01/14 20:04:38;;;;;;;;;;;;;;;17.33;41.29;100104.34;4368817;32;19952;-81
2021/01/14 20:07:04;;;;;;;;;;;;;;;17.32;41.28;100108.72;4379511;32;19953;-81
2021/01/14 20:09:30;;;;;;;;;;;;;;;17.32;41.32;100105.22;4365718;32;20013;-80
2021/01/14 20:11:56;;;;;;;;;;;;;;;17.31;41.34;100106.94;4363083;32;19943;-81
2021/01/14 20:14:21;;;;;;;;;;;;;;;17.31;41.33;100101.69;4359272;32;19998;-81
2021/01/14 20:16:47;;;;;;;;;;;;;;;17.31;41.36;100106.94;4356966;32;19944;-81
2021/01/14 20:19:13;;;;;;;;;;;;;;;17.30;41.38;100105.16;4355653;32;20383;-81
2021/01/14 20:21:39;;;;;;;;;;;;;;;17.31;41.41;100112.19;4363758;32;19966;-80
2021/01/14 20:24:05;;;;;;;;;;;;;;;17.30;41.43;100107.81;4384119;32;19955;-81
2021/01/14 20:26:31;;;;;;;;;;;;;;;17.30;41.43;100105.16;4370789;32;19951;-82
2021/01/14 20:28:57;;;;;;;;;;;;;;;17.30;41.45;100115.69;4385099;32;19965;-81
2021/01/14 20:31:23;;;;;;;;;;;;;;;17.30;41.43;100115.69;4370442;32;20045;-81
2021/01/14 20:33:49;;;;;;;;;;;;;;;17.30;41.47;100115.69;4370615;32;19976;-80
2021/01/14 20:36:16;;;;;;;;;;;;;;;17.30;41.48;100114.81;4367685;32;20030;-80
2021/01/14 20:38:42;;;;;;;;;;;;;;;17.30;41.48;100122.72;4355745;32;19994;-81
2021/01/14 20:41:08;;;;;;;;;;;;;;;17.29;41.49;100124.44;4355428;32;19940;-81
2021/01/14 20:43:34;;;;;;;;;;;;;;;17.29;41.50;100124.44;4355331;32;19959;-81
2021/01/14 20:45:59;;;;;;;;;;;;;;;17.29;41.51;100132.34;4369503;32;19956;-81
2021/01/14 20:48:31;;;;;;;;;;;;;;;17.29;41.51;100134.97;4395703;32;19963;-81
2021/01/14 20:50:57;;;;;;;;;;;;;;;17.28;41.52;100130.56;4395683;32;19992;-81
2021/01/14 20:53:23;;;;;;;;;;;;;;;17.28;41.51;100134.09;4384011;32;20043;-81
2021/01/14 20:55:49;;;;;;;;;;;;;;;17.28;41.53;100125.31;4370522;32;19952;-81
2021/01/14 20:58:15;;;;;;;;;;;;;;;17.27;41.53;100120.91;4370424;32;19951;-81
2021/01/14 21:00:41;;;;;;;;;;;;;;;17.27;41.54;100126.16;4370184;32;19962;-81
2021/01/14 21:03:06;;;;;;;;;;;;;;;17.27;41.51;100128.78;4370867;32;19959;-81
2021/01/14 21:05:34;;;;;;;;;;;;;;;17.27;41.54;100124.41;4364637;32;19981;-81
2021/01/14 21:07:59;;;;;;;;;;;;;;;17.26;41.52;100121.75;4355821;32;19939;-81
2021/01/14 21:10:25;;;;;;;;;;;;;;;17.27;41.53;100120.91;4355092;32;19955;-81
2021/01/14 21:12:51;;;;;;;;;;;;;;;17.26;41.52;100120.00;4362268;32;19985;-81
2021/01/14 21:15:17;;;;;;;;;;;;;;;17.26;41.52;100124.38;4353847;32;19993;-81
2021/01/14 21:17:43;;;;;;;;;;;;;;;17.26;41.51;100125.25;4368297;32;19978;-81
2021/01/14 21:20:09;;;;;;;;;;;;;;;17.26;41.51;100116.50;4394437;32;19935;-81
2021/01/14 21:22:35;;;;;;;;;;;;;;;17.26;41.49;100117.38;4387352;32;19943;-81
2021/01/14 21:25:01;;;;;;;;;;;;;;;17.25;41.48;100114.72;4383865;32;19952;-81
2021/01/14 21:27:27;;;;;;;;;;;;;;;17.25;41.46;100112.09;4369181;32;19962;-81
2021/01/14 21:29:53;;;;;;;;;;;;;;;17.25;41.45;100112.09;4370057;32;20302;-81
2021/01/14 21:32:20;;;;;;;;;;;;;;;17.25;41.43;100114.72;4369508;32;19959;-81
2021/01/14 21:34:46;;;;;;;;;;;;;;;17.25;41.42;100106.81;4368178;32;19994;-81
2021/01/14 21:37:11;;;;;;;;;;;;;;;17.24;41.42;100105.06;4369708;32;20021;-81
2021/01/14 21:39:37;;;;;;;;;;;;;;;17.24;41.40;100105.06;4370026;32;19951;-82
2021/01/14 21:42:03;;;;;;;;;;;;;;;17.23;41.37;100108.53;4369009;32;19998;-81
2021/01/14 21:44:29;;;;;;;;;;;;;;;17.22;41.37;100104.09;4366386;33;19956;-81
2021/01/14 21:46:55;;;;;;;;;;;;;;;17.21;41.34;100105.88;4355469;33;19975;-81
2021/01/14 21:49:21;;;;;;;;;;;;;;;17.23;41.28;100103.28;4354302;33;19955;-81
2021/01/14 21:51:47;;;;;;;;;;;;;;;17.22;41.18;100106.75;4354819;33;19951;-81
2021/01/14 21:54:14;;;;;;;;;;;;;;;17.21;41.18;100108.50;4368263;32;19985;-81
2021/01/14 21:56:40;;;;;;;;;;;;;;;17.20;41.08;100105.81;4372488;32;19943;-81
2021/01/14 21:59:06;;;;;;;;;;;;;;;17.20;41.09;100108.47;4386037;32;19943;-81
2021/01/14 22:01:32;;;;;;;;;;;;;;;17.20;41.04;100103.19;4395560;32;19951;-81
2021/01/14 22:03:58;;;;;;;;;;;;;;;17.19;40.91;100106.69;4373539;32;19955;-81
2021/01/14 22:06:24;;;;;;;;;;;;;;;17.19;40.89;100111.94;4369306;32;20655;-81
2021/01/14 22:08:50;;;;;;;;;;;;;;;17.18;40.84;100105.81;4357396;33;19974;-81
2021/01/14 22:11:16;;;;;;;;;;;;;;;17.19;40.85;100106.69;4357156;32;19961;-81
2021/01/14 22:13:42;;;;;;;;;;;;;;;17.17;40.68;100103.12;4358301;32;19947;-81
2021/01/14 22:16:08;;;;;;;;;;;;;;;17.17;40.68;100113.66;4361190;32;20336;-81
2021/01/14 22:18:34;;;;;;;;;;;;;;;17.17;40.65;100103.12;4372789;32;19948;-81
2021/01/14 22:21:00;;;;;;;;;;;;;;;17.16;40.52;100107.50;4372895;32;20292;-81
2021/01/14 22:23:26;;;;;;;;;;;;;;;17.14;40.35;100104.84;4372233;32;19957;-81
2021/01/14 22:25:52;;;;;;;;;;;;;;;17.14;40.33;100110.12;4372261;32;20488;-81
2021/01/14 22:28:18;;;;;;;;;;;;;;;17.16;40.28;100114.53;4372500;32;19951;-81
2021/01/14 22:30:44;;;;;;;;;;;;;;;17.14;40.18;100118.00;4372275;32;19943;-81
2021/01/14 22:33:10;;;;;;;;;;;;;;;17.12;40.22;100117.09;4368452;32;19969;-81
2021/01/14 22:35:37;;;;;;;;;;;;;;;17.13;40.14;100118.87;4372812;32;19955;-81
2021/01/14 22:38:03;;;;;;;;;;;;;;;17.12;40.08;100124.97;4372273;32;19959;-81
2021/01/14 22:40:29;;;;;;;;;;;;;;;17.12;40.17;100122.34;4371489;32;20320;-81
2021/01/14 22:42:54;;;;;;;;;;;;;;;17.12;40.12;100126.72;4372279;32;19955;-81
2021/01/14 22:45:20;;;;;;;;;;;;;;;17.11;40.13;100123.22;4386296;32;20033;-81
2021/01/14 22:47:46;;;;;;;;;;;;;;;17.11;39.80;100128.47;4372548;32;19957;-81
2021/01/14 22:50:12;;;;;;;;;;;;;;;17.10;39.94;100134.59;4362053;32;20011;-81
2021/01/14 22:52:38;;;;;;;;;;;;;;;17.10;39.93;100129.34;4372505;32;19965;-80
2021/01/14 22:55:04;;;;;;;;;;;;;;;17.11;39.73;100127.56;4359091;32;19947;-81
2021/01/14 22:57:30;;;;;;;;;;;;;;;17.10;39.93;100138.94;4371282;32;19955;-82
2021/01/14 22:59:56;;;;;;;;;;;;;;;17.10;39.93;100139.84;4360703;32;20396;-82
2021/01/14 23:02:22;;;;;;;;;;;;;;;17.09;39.72;100140.69;4368978;32;19979;-81
2021/01/14 23:04:48;;;;;;;;;;;;;;;17.09;39.70;100140.69;4369400;32;19955;-82
2021/01/14 23:07:13;;;;;;;;;;;;;;;17.10;39.71;100138.94;4371061;32;19963;-81
2021/01/14 23:09:40;;;;;;;;;;;;;;;17.08;39.59;100136.28;4384691;32;19963;-81
2021/01/14 23:12:05;;;;;;;;;;;;;;;17.08;39.48;100136.28;4370203;32;19958;-81
2021/01/14 23:14:31;;;;;;;;;;;;;;;17.08;39.77;100138.03;4364622;32;19970;-82
2021/01/14 23:16:57;;;;;;;;;;;;;;;17.07;39.62;100137.12;4382060;32;19981;-81
2021/01/14 23:19:23;;;;;;;;;;;;;;;17.06;39.74;100132.72;4378052;32;20034;-81
2021/01/14 23:21:49;;;;;;;;;;;;;;;17.06;39.68;100143.25;4371211;32;20012;-82
2021/01/14 23:24:18;;;;;;;;;;;;;;;17.06;39.53;100143.25;4360509;32;19963;-81
2021/01/14 23:26:44;;;;;;;;;;;;;;;17.06;39.39;100135.34;4364285;32;20284;-81
2021/01/14 23:29:09;;;;;;;;;;;;;;;17.05;39.54;100141.47;4356311;32;19948;-81
2021/01/14 23:31:35;;;;;;;;;;;;;;;17.05;39.36;100141.47;4356789;32;19991;-81
2021/01/14 23:34:03;;;;;;;;;;;;;;;17.05;39.48;100136.22;4380941;32;20009;-81
2021/01/14 23:36:29;;;;;;;;;;;;;;;17.04;39.49;100137.06;4364978;32;19975;-82
2021/01/14 23:38:55;;;;;;;;;;;;;;;17.04;39.29;100139.69;4356883;32;19966;-81
2021/01/14 23:41:21;;;;;;;;;;;;;;;17.04;39.18;100139.69;4395211;32;19994;-82
2021/01/14 23:43:47;;;;;;;;;;;;;;;17.04;39.26;100137.06;4396391;32;19967;-81
2021/01/14 23:46:13;;;;;;;;;;;;;;;17.04;39.25;100139.69;4395691;32;19947;-81
2021/01/14 23:48:39;;;;;;;;;;;;;;;17.03;39.20;100142.28;4395466;32;19970;-81
2021/01/14 23:51:05;;;;;;;;;;;;;;;17.03;39.13;100148.44;4378484;32;19978;-81
2021/01/14 23:53:31;;;;;;;;;;;;;;;17.03;39.06;100151.09;4355873;32;19961;-81
2021/01/14 23:55:56;;;;;;;;;;;;;;;17.01;39.14;100142.28;4356325;33;19969;-81
2021/01/14 23:58:22;;;;;;;;;;;;;;;17.02;38.97;100153.66;4355694;32;20200;-81
